Time;durP1;ratioP1;P1;durP2;ratioP2;P2;SDS_P1;SDS_P2;PMS_P1;PMS_P2;Temp;Humidity;BMP_temperature;BMP_pressure;BME280_temperature;BME280_humidity;BME280_pressure;Samples;Min_cycle;Max_cycle;Signal;HPM_P1;HPM_P2
2023/01/31 00:01:28;;;;;;;22.73;3.03;;;4.40;99.90;;;;;;5039029;28;20054;-73
2023/01/31 00:03:56;;;;;;;19.40;2.67;;;4.40;99.90;;;;;;5058020;28;20055;-74
2023/01/31 00:06:27;;;;;;;26.77;3.42;;;4.40;99.90;;;;;;5037872;28;20045;-73
2023/01/31 00:08:54;;;;;;;25.95;2.83;;;4.40;99.90;;;;;;5045523;28;20410;-74
2023/01/31 00:11:23;;;;;;;26.23;2.67;;;5.00;99.90;;;;;;5059143;28;20454;-73
2023/01/31 00:13:49;;;;;;;25.98;3.83;;;4.60;99.90;;;;;;5022261;28;20045;-73
2023/01/31 00:16:16;;;;;;;22.98;2.67;;;4.30;99.90;;;;;;5018716;28;20064;-74
2023/01/31 00:18:42;;;;;;;20.50;2.67;;;5.00;99.90;;;;;;5059944;28;20036;-73
2023/01/31 00:21:13;;;;;;;30.42;3.28;;;4.30;99.90;;;;;;5036828;28;20508;-74
2023/01/31 00:23:40;;;;;;;22.63;3.25;;;4.30;99.90;;;;;;5055795;28;20674;-74
2023/01/31 00:26:18;;;;;;;20.25;2.55;;;4.30;99.90;;;;;;5044098;28;20505;-74
2023/01/31 00:28:45;;;;;;;22.48;2.42;;;4.30;99.90;;;;;;5040445;28;20037;-73
2023/01/31 00:31:12;;;;;;;18.08;2.63;;;4.30;99.90;;;;;;5037752;28;20045;-73
2023/01/31 00:33:40;;;;;;;22.10;3.13;;;4.20;99.90;;;;;;5063127;28;20048;-74
2023/01/31 00:36:08;;;;;;;23.23;2.83;;;4.20;99.90;;;;;;5056491;28;20123;-73
2023/01/31 00:38:34;;;;;;;21.98;2.47;;;4.10;99.90;;;;;;5040142;28;20517;-73
2023/01/31 00:41:02;;;;;;;16.40;2.85;;;4.10;99.90;;;;;;5015825;28;20833;-74
2023/01/31 00:43:30;;;;;;;24.23;2.53;;;4.10;99.90;;;;;;5038691;28;20407;-73
2023/01/31 00:45:55;;;;;;;25.50;3.75;;;4.10;99.90;;;;;;5033063;28;20052;-74
2023/01/31 00:48:21;;;;;;;22.02;2.88;;;4.00;99.90;;;;;;5033247;28;20098;-74
2023/01/31 00:50:47;;;;;;;14.13;2.40;;;4.00;99.90;;;;;;5059064;28;20515;-75
2023/01/31 00:53:13;;;;;;;20.52;3.10;;;4.40;99.90;;;;;;5043885;28;20079;-73
2023/01/31 00:55:38;;;;;;;21.98;2.65;;;4.30;99.90;;;;;;5025353;28;20033;-74
2023/01/31 00:58:05;;;;;;;20.05;2.83;;;3.90;99.90;;;;;;5020448;28;20053;-74
2023/01/31 01:00:31;;;;;;;21.13;2.92;;;4.30;99.90;;;;;;5018473;28;20584;-73
2023/01/31 01:02:56;;;;;;;27.77;2.65;;;3.90;99.90;;;;;;5034489;28;20044;-74
2023/01/31 01:05:22;;;;;;;24.70;3.17;;;3.80;99.90;;;;;;5014756;28;20037;-74
2023/01/31 01:07:48;;;;;;;21.60;3.13;;;3.80;99.90;;;;;;5035096;28;20042;-74
2023/01/31 01:10:14;;;;;;;22.08;2.92;;;3.80;99.90;;;;;;5054146;28;20060;-73
2023/01/31 01:12:40;;;;;;;19.45;2.20;;;3.80;99.90;;;;;;5034267;28;20791;-73
2023/01/31 01:15:06;;;;;;;17.73;2.67;;;3.70;99.90;;;;;;5021106;28;20102;-73
2023/01/31 01:17:32;;;;;;;19.85;2.95;;;3.70;99.90;;;;;;5032847;28;20066;-73
2023/01/31 01:20:02;;;;;;;17.55;2.45;;;3.70;99.90;;;;;;5038672;28;20048;-74
2023/01/31 01:22:28;;;;;;;18.38;2.15;;;3.40;99.90;;;;;;5032816;28;20448;-74
2023/01/31 01:24:54;;;;;;;23.73;2.80;;;3.70;99.90;;;;;;5012812;28;20704;-74
2023/01/31 01:27:20;;;;;;;24.25;2.30;;;3.60;99.90;;;;;;5034733;28;20049;-73
2023/01/31 01:29:46;;;;;;;22.40;2.70;;;3.60;99.90;;;;;;5054270;28;20489;-74
2023/01/31 01:32:11;;;;;;;20.70;2.22;;;3.60;99.90;;;;;;5050616;28;20120;-73
2023/01/31 01:34:37;;;;;;;20.95;2.63;;;3.60;99.90;;;;;;5039244;28;20132;-73
2023/01/31 01:37:10;;;;;;;23.67;2.83;;;4.00;99.90;;;;;;5033691;28;20099;-73
2023/01/31 01:39:37;;;;;;;16.92;2.33;;;3.60;99.90;;;;;;5040513;28;20049;-74
2023/01/31 01:42:03;;;;;;;25.55;2.40;;;4.10;99.90;;;;;;5055104;28;20434;-73
2023/01/31 01:44:51;;;;;;;22.17;4.38;;;3.60;99.90;;;;;;5017474;28;20124;-74
2023/01/31 01:47:45;;;;;;;20.48;2.83;;;3.60;99.90;;;;;;5021412;28;20040;-73
2023/01/31 01:50:21;;;;;;;24.05;2.72;;;3.60;99.90;;;;;;5054656;28;20106;-73
2023/01/31 01:52:54;;;;;;;20.50;2.97;;;3.60;99.90;;;;;;5035393;28;20047;-73
2023/01/31 01:55:31;;;;;;;18.25;2.22;;;3.60;99.90;;;;;;5022241;28;20080;-73
2023/01/31 01:58:07;;;;;;;23.88;2.40;;;3.60;99.90;;;;;;5052048;28;20049;-74
2023/01/31 02:00:34;;;;;;;22.80;3.85;;;3.60;99.90;;;;;;5038515;28;20414;-73
2023/01/31 02:03:04;;;;;;;17.42;2.50;;;3.70;99.90;;;;;;5039335;28;20665;-73
2023/01/31 02:05:40;;;;;;;25.30;2.88;;;3.60;99.90;;;;;;5021154;28;20559;-73
2023/01/31 02:08:06;;;;;;;18.95;2.47;;;3.60;99.90;;;;;;5052230;28;20047;-73
2023/01/31 02:10:44;;;;;;;19.23;2.60;;;3.60;99.90;;;;;;5050485;28;20726;-73
2023/01/31 02:13:11;;;;;;;21.25;2.72;;;3.60;99.90;;;;;;5035093;28;20150;-71
2023/01/31 02:15:38;;;;;;;17.33;2.60;;;3.60;99.90;;;;;;5039924;28;20048;-71
2023/01/31 02:18:05;;;;;;;22.65;2.53;;;3.70;99.90;;;;;;5042680;28;20127;-71
2023/01/31 02:21:11;;;;;;;23.92;2.55;;;3.70;99.90;;;;;;5042314;28;20059;-72
2023/01/31 02:23:50;;;;;;;19.17;2.17;;;3.70;99.90;;;;;;5020905;28;20107;-71
2023/01/31 02:26:58;;;;;;;17.33;2.40;;;4.40;99.90;;;;;;5018799;28;20131;-71
2023/01/31 02:29:42;;;;;;;19.17;2.42;;;3.70;99.90;;;;;;5034274;28;20033;-71
2023/01/31 02:32:26;;;;;;;18.20;2.17;;;3.70;99.90;;;;;;5029908;28;20179;-71
2023/01/31 02:35:14;;;;;;;25.33;2.45;;;3.80;99.90;;;;;;5034436;28;20491;-72
2023/01/31 02:37:50;;;;;;;20.05;2.33;;;3.80;99.90;;;;;;5052115;28;20036;-71
2023/01/31 02:40:21;;;;;;;19.42;2.72;;;3.80;99.90;;;;;;5031095;28;20049;-72
2023/01/31 02:42:53;;;;;;;22.25;1.90;;;3.80;99.90;;;;;;5045995;28;20474;-71
2023/01/31 02:45:47;;;;;;;16.73;1.83;;;3.80;99.90;;;;;;5025427;28;20053;-71
2023/01/31 02:48:37;;;;;;;25.10;2.50;;;3.80;99.90;;;;;;5046733;28;20044;-71
2023/01/31 02:51:20;;;;;;;15.30;2.15;;;3.80;99.90;;;;;;5022649;28;20048;-72
2023/01/31 02:54:07;;;;;;;25.33;4.10;;;4.10;99.90;;;;;;5054981;28;20044;-71
2023/01/31 02:56:36;;;;;;;25.13;2.35;;;3.80;99.90;;;;;;5038031;28;20501;-71
2023/01/31 02:59:14;;;;;;;14.73;2.10;;;3.80;99.90;;;;;;5050642;28;20412;-72
2023/01/31 03:01:49;;;;;;;11.93;1.85;;;3.80;99.90;;;;;;5038183;28;20474;-72
2023/01/31 03:04:14;;;;;;;15.05;2.53;;;3.80;99.90;;;;;;5058406;28;20059;-72
2023/01/31 03:06:53;;;;;;;16.17;1.73;;;4.60;99.90;;;;;;5036909;28;20071;-72
2023/01/31 03:09:35;;;;;;;19.90;2.03;;;4.30;99.90;;;;;;5050952;28;20053;-71
2023/01/31 03:12:18;;;;;;;17.27;2.17;;;3.80;99.90;;;;;;5023095;28;20163;-71
2023/01/31 03:14:51;;;;;;;20.33;2.25;;;3.80;99.90;;;;;;5037167;28;20060;-71
2023/01/31 03:17:33;;;;;;;16.08;2.00;;;3.90;99.90;;;;;;5018903;28;20402;-71
2023/01/31 03:20:16;;;;;;;15.35;2.72;;;3.90;99.90;;;;;;5057106;28;20048;-72
2023/01/31 03:22:57;;;;;;;14.35;2.17;;;3.90;99.90;;;;;;5046546;28;20052;-71
2023/01/31 03:25:26;;;;;;;16.43;2.00;;;3.90;99.90;;;;;;5039420;28;20458;-72
2023/01/31 03:27:56;;;;;;;17.92;2.88;;;4.00;99.90;;;;;;5056175;28;20046;-71
2023/01/31 03:30:37;;;;;;;15.88;3.20;;;4.00;99.90;;;;;;5040599;28;20055;-71
2023/01/31 03:33:25;;;;;;;19.27;2.67;;;4.00;99.90;;;;;;5035702;28;20056;-71
2023/01/31 03:36:11;;;;;;;21.73;2.47;;;4.10;99.90;;;;;;5059521;28;20505;-71
2023/01/31 03:38:49;;;;;;;24.38;2.55;;;3.90;99.90;;;;;;5027387;28;20086;-71
2023/01/31 03:41:24;;;;;;;15.70;2.55;;;4.00;99.90;;;;;;5041279;28;20111;-71
2023/01/31 03:44:05;;;;;;;24.38;2.58;;;4.00;99.90;;;;;;5029555;28;20056;-71
2023/01/31 03:46:46;;;;;;;24.08;3.03;;;4.00;99.90;;;;;;5040049;28;20056;-71
2023/01/31 03:49:14;;;;;;;23.83;3.75;;;4.00;99.90;;;;;;5039961;28;20044;-71
2023/01/31 03:51:56;;;;;;;27.13;3.10;;;4.10;99.90;;;;;;5017504;28;20053;-72
2023/01/31 03:54:24;;;;;;;;;;;4.10;99.90;;;;;;5037717;28;20763;-71
2023/01/31 03:56:53;;;;;;;20.85;2.75;;;4.20;99.90;;;;;;5039972;28;20014;-71
2023/01/31 03:59:23;;;;;;;24.13;2.55;;;4.10;99.90;;;;;;5037988;28;20048;-72
2023/01/31 04:01:53;;;;;;;19.25;2.97;;;4.20;99.90;;;;;;5016549;28;20114;-71
2023/01/31 04:04:31;;;;;;;23.10;3.47;;;4.30;99.90;;;;;;5029189;28;20174;-72
2023/01/31 04:06:59;;;;;;;19.23;2.92;;;4.30;99.90;;;;;;5063092;28;20098;-72
2023/01/31 04:09:24;;;;;;;22.75;3.20;;;4.30;99.90;;;;;;5044795;28;20048;-71
2023/01/31 04:11:50;;;;;;;19.75;3.15;;;4.30;99.90;;;;;;5039552;28;20417;-72
2023/01/31 04:14:17;;;;;;;24.55;3.17;;;5.20;99.90;;;;;;5064581;28;20505;-72
2023/01/31 04:16:42;;;;;;;24.08;3.63;;;4.40;99.90;;;;;;5059579;28;20029;-72
2023/01/31 04:19:08;;;;;;;21.05;3.10;;;4.50;99.90;;;;;;5045363;28;20040;-72
2023/01/31 04:21:34;;;;;;;19.88;2.90;;;4.50;99.90;;;;;;5053696;28;20048;-72
2023/01/31 04:24:00;;;;;;;25.70;4.13;;;4.50;99.90;;;;;;5061087;28;20075;-72
2023/01/31 04:26:26;;;;;;;28.08;4.15;;;4.60;99.90;;;;;;5041867;28;20086;-72
2023/01/31 04:28:52;;;;;;;26.08;3.40;;;4.60;99.90;;;;;;5036539;28;20123;-71
2023/01/31 04:31:17;;;;;;;25.05;3.75;;;4.60;99.90;;;;;;5062328;28;20170;-72
2023/01/31 04:33:43;;;;;;;35.35;3.83;;;4.60;99.90;;;;;;5050768;28;20062;-72
2023/01/31 04:36:09;;;;;;;20.40;4.13;;;5.00;99.90;;;;;;5058444;28;20052;-71
2023/01/31 04:38:35;;;;;;;20.38;3.88;;;4.70;99.90;;;;;;5061317;28;20040;-71
2023/01/31 04:41:01;;;;;;;32.72;4.10;;;4.80;99.90;;;;;;5059699;28;20032;-72
2023/01/31 04:43:27;;;;;;;31.23;4.63;;;4.70;99.90;;;;;;5052945;28;20041;-71
2023/01/31 04:45:52;;;;;;;23.77;3.75;;;4.80;99.90;;;;;;5037439;28;20048;-72
2023/01/31 04:48:18;;;;;;;34.58;3.67;;;4.90;99.90;;;;;;5062012;28;20071;-72
2023/01/31 04:50:44;;;;;;;27.00;4.03;;;4.90;99.90;;;;;;5038021;28;20040;-71
2023/01/31 04:53:09;;;;;;;30.95;3.92;;;4.90;99.90;;;;;;5011130;28;20056;-72
2023/01/31 04:55:35;;;;;;;21.58;3.38;;;5.20;99.90;;;;;;5028813;28;20048;-71
2023/01/31 04:58:01;;;;;;;25.55;3.88;;;4.90;99.90;;;;;;5024411;28;20113;-71
2023/01/31 05:00:27;;;;;;;31.17;4.32;;;4.90;99.90;;;;;;5032004;28;20529;-71
2023/01/31 05:02:53;;;;;;;25.55;3.75;;;5.60;99.90;;;;;;5042239;28;20041;-71
2023/01/31 05:05:19;;;;;;;29.90;4.72;;;4.90;99.90;;;;;;5036426;28;20132;-72
2023/01/31 05:07:45;;;;;;;27.88;5.00;;;5.00;99.90;;;;;;5038904;28;20498;-72
2023/01/31 05:10:12;;;;;;;29.70;4.20;;;5.00;99.90;;;;;;5034574;28;20044;-71
2023/01/31 05:12:38;;;;;;;28.45;4.35;;;5.00;99.90;;;;;;5028341;28;20498;-72
2023/01/31 05:15:06;;;;;;;29.83;4.15;;;5.30;99.90;;;;;;5026067;28;20446;-72
2023/01/31 05:17:32;;;;;;;32.22;4.32;;;5.00;99.90;;;;;;5029452;28;20057;-72
2023/01/31 05:19:58;;;;;;;22.95;4.35;;;5.00;99.90;;;;;;5030137;28;20092;-72
2023/01/31 05:22:25;;;;;;;30.25;4.20;;;5.10;99.90;;;;;;5038373;28;20045;-72
2023/01/31 05:24:51;;;;;;;29.85;4.25;;;5.10;99.90;;;;;;5031905;28;20044;-71
2023/01/31 05:27:18;;;;;;;31.33;4.55;;;5.10;99.90;;;;;;5032861;28;20041;-72
2023/01/31 05:29:44;;;;;;;28.33;4.80;;;5.10;99.90;;;;;;5028245;28;20037;-72
2023/01/31 05:32:11;;;;;;;25.20;3.90;;;5.10;99.90;;;;;;5036200;28;20056;-71
2023/01/31 05:34:37;;;;;;;27.27;3.97;;;5.10;99.90;;;;;;5032986;28;20037;-71
2023/01/31 05:37:03;;;;;;;25.92;4.35;;;5.10;99.90;;;;;;5019651;28;20044;-71
2023/01/31 05:39:29;;;;;;;28.95;4.25;;;5.20;99.90;;;;;;5033728;28;20037;-71
2023/01/31 05:41:55;;;;;;;39.75;5.05;;;5.10;99.90;;;;;;5030840;28;20045;-71
2023/01/31 05:44:21;;;;;;;26.10;4.25;;;5.60;99.90;;;;;;5032030;28;20060;-71
2023/01/31 05:46:47;;;;;;;27.13;4.53;;;5.20;99.90;;;;;;5036501;28;20033;-71
2023/01/31 05:49:13;;;;;;;36.63;4.78;;;5.20;99.90;;;;;;5032073;28;20520;-71
2023/01/31 05:51:40;;;;;;;34.22;4.50;;;5.50;99.90;;;;;;5032910;28;20037;-71
2023/01/31 05:54:06;;;;;;;23.15;3.60;;;5.30;99.90;;;;;;5031096;28;20133;-71
2023/01/31 05:56:32;;;;;;;25.42;4.93;;;5.60;99.90;;;;;;5033077;28;20037;-72
2023/01/31 05:58:58;;;;;;;30.48;5.57;;;5.20;99.90;;;;;;5018186;28;20056;-72
2023/01/31 06:01:25;;;;;;;28.63;4.20;;;5.90;99.90;;;;;;5020041;28;20036;-71
2023/01/31 06:03:52;;;;;;;21.98;3.55;;;5.30;99.90;;;;;;5032553;28;20053;-71
2023/01/31 06:06:19;;;;;;;23.08;3.60;;;5.20;99.90;;;;;;5035678;28;20064;-72
2023/01/31 06:08:46;;;;;;;42.00;4.50;;;5.30;99.90;;;;;;5031600;28;20052;-72
2023/01/31 06:11:13;;;;;;;37.42;4.90;;;5.20;99.90;;;;;;5032325;28;20136;-72
2023/01/31 06:13:42;;;;;;;32.47;4.80;;;5.20;99.90;;;;;;5035478;28;20056;-72
2023/01/31 06:16:08;;;;;;;30.17;5.70;;;5.20;99.90;;;;;;5020519;28;20526;-72
2023/01/31 06:18:34;;;;;;;26.88;4.10;;;5.20;99.90;;;;;;5030679;28;20048;-72
2023/01/31 06:21:00;;;;;;;27.35;4.00;;;5.20;99.90;;;;;;5015182;28;20156;-72
2023/01/31 06:23:27;;;;;;;28.95;5.00;;;5.20;99.90;;;;;;5031946;28;20558;-72
2023/01/31 06:25:54;;;;;;;33.70;5.00;;;5.20;99.90;;;;;;5019273;28;20107;-72
2023/01/31 06:28:20;;;;;;;27.08;4.40;;;5.20;99.90;;;;;;5038201;28;20128;-72
2023/01/31 06:30:47;;;;;;;26.33;4.00;;;5.30;99.90;;;;;;5033174;28;20118;-72
2023/01/31 06:33:13;;;;;;;28.25;4.38;;;5.30;99.90;;;;;;5022495;28;20041;-72
2023/01/31 06:35:39;;;;;;;27.55;4.28;;;5.30;99.90;;;;;;5020169;28;20119;-72
2023/01/31 06:38:05;;;;;;;27.10;4.70;;;5.30;99.90;;;;;;5037071;28;20565;-72
2023/01/31 06:40:32;;;;;;;28.48;4.47;;;5.30;99.90;;;;;;5034431;28;20075;-72
2023/01/31 06:42:58;;;;;;;26.63;3.75;;;5.40;99.90;;;;;;5035405;28;20077;-72
2023/01/31 06:45:24;;;;;;;33.70;4.72;;;5.90;99.90;;;;;;5036533;28;20037;-72
2023/01/31 06:47:49;;;;;;;29.52;4.20;;;5.60;99.90;;;;;;5016902;28;20094;-71
2023/01/31 06:50:16;;;;;;;40.42;4.55;;;5.40;99.90;;;;;;5035103;28;20044;-72
2023/01/31 06:52:42;;;;;;;26.08;3.67;;;5.40;99.90;;;;;;5020190;28;20269;-72
2023/01/31 06:55:08;;;;;;;27.60;3.92;;;5.40;99.90;;;;;;5032205;28;20052;-72
2023/01/31 06:57:33;;;;;;;23.63;4.25;;;5.40;99.90;;;;;;5017599;28;20496;-72
2023/01/31 06:59:59;;;;;;;28.10;4.07;;;5.50;99.90;;;;;;5018374;28;20041;-72
2023/01/31 07:02:25;;;;;;;31.05;5.53;;;5.90;99.90;;;;;;5032993;28;20045;-72
2023/01/31 07:04:51;;;;;;;20.13;3.60;;;5.40;99.90;;;;;;5032061;28;20091;-72
2023/01/31 07:07:17;;;;;;;27.25;3.78;;;5.40;99.90;;;;;;5038585;28;20040;-72
2023/01/31 07:09:42;;;;;;;25.27;3.30;;;5.40;99.90;;;;;;5015452;28;20045;-72
2023/01/31 07:12:08;;;;;;;26.75;4.07;;;5.40;99.90;;;;;;5044801;28;20087;-72
2023/01/31 07:14:34;;;;;;;21.85;3.78;;;5.40;99.90;;;;;;5039233;28;20048;-72
2023/01/31 07:17:00;;;;;;;19.45;3.78;;;5.40;99.90;;;;;;5043369;28;20131;-72
2023/01/31 07:19:26;;;;;;;27.63;3.30;;;5.40;99.90;;;;;;5041598;28;20132;-72
2023/01/31 07:21:52;;;;;;;24.05;4.15;;;5.50;99.90;;;;;;5051475;28;20777;-72
2023/01/31 07:24:17;;;;;;;28.10;4.28;;;5.50;99.90;;;;;;5050447;28;20029;-72
2023/01/31 07:26:43;;;;;;;20.08;3.17;;;5.50;99.90;;;;;;5029515;28;20036;-72
2023/01/31 07:29:10;;;;;;;20.10;3.33;;;5.50;99.90;;;;;;5029257;28;20048;-72
2023/01/31 07:31:37;;;;;;;27.13;3.60;;;5.50;99.90;;;;;;5030870;28;20106;-72
2023/01/31 07:34:03;;;;;;;32.00;3.75;;;5.50;99.90;;;;;;5051238;28;20045;-72
2023/01/31 07:36:29;;;;;;;23.30;3.72;;;5.50;99.90;;;;;;5049179;28;20059;-72
2023/01/31 07:38:56;;;;;;;26.20;3.40;;;5.60;99.90;;;;;;5036765;28;20053;-71
2023/01/31 07:41:23;;;;;;;22.42;3.33;;;5.60;99.90;;;;;;5031418;28;20074;-71
2023/01/31 07:43:49;;;;;;;21.25;3.25;;;5.60;99.90;;;;;;5032893;28;20081;-72
2023/01/31 07:46:15;;;;;;;21.27;3.50;;;5.60;99.90;;;;;;5035511;28;20128;-72
2023/01/31 07:48:41;;;;;;;18.25;3.20;;;5.70;99.90;;;;;;5035663;28;20099;-72
2023/01/31 07:51:07;;;;;;;20.40;3.42;;;5.60;99.90;;;;;;5020025;28;20135;-71
2023/01/31 07:53:35;;;;;;;24.02;2.97;;;5.60;99.90;;;;;;5059667;28;20538;-71
2023/01/31 07:56:09;;;;;;;23.05;3.00;;;5.60;99.90;;;;;;5037291;28;20059;-73
2023/01/31 07:58:37;;;;;;;25.13;3.10;;;5.60;99.90;;;;;;5020839;28;20048;-71
2023/01/31 08:03:49;;;;;;;20.73;3.40;;;5.70;99.90;;;;;;5035549;28;20045;-70
2023/01/31 08:06:14;;;;;;;19.60;2.85;;;5.70;99.90;;;;;;5041876;28;20044;-71
2023/01/31 08:08:42;;;;;;;21.92;3.03;;;5.90;99.90;;;;;;5057909;28;20150;-70
2023/01/31 08:11:07;;;;;;;23.40;2.38;;;5.80;99.90;;;;;;5034816;28;20053;-71
2023/01/31 08:13:35;;;;;;;16.90;2.63;;;6.30;99.90;;;;;;5032904;28;20045;-71
2023/01/31 08:16:02;;;;;;;22.83;3.20;;;5.80;99.90;;;;;;5031841;28;20111;-71
2023/01/31 08:18:28;;;;;;;15.80;3.10;;;6.20;99.90;;;;;;5036620;28;20044;-72
2023/01/31 08:20:55;;;;;;;17.77;2.65;;;5.80;99.90;;;;;;5051969;28;20040;-69
2023/01/31 08:23:21;;;;;;;17.13;2.58;;;5.90;99.90;;;;;;5035567;28;20071;-71
2023/01/31 08:25:47;;;;;;;19.45;2.58;;;5.80;99.90;;;;;;5033624;28;20127;-71
2023/01/31 08:28:14;;;;;;;22.08;3.75;;;5.80;99.90;;;;;;5047482;28;20144;-71
2023/01/31 08:30:43;;;;;;;18.83;2.50;;;5.80;99.90;;;;;;5057995;28;20051;-72
2023/01/31 08:33:10;;;;;;;22.02;3.05;;;5.80;99.90;;;;;;5031514;28;20044;-72
2023/01/31 08:35:37;;;;;;;15.75;2.60;;;5.80;99.90;;;;;;5038588;28;20045;-72
2023/01/31 08:38:03;;;;;;;16.88;2.78;;;5.90;99.90;;;;;;5037025;28;20472;-72
2023/01/31 08:40:29;;;;;;;23.80;3.63;;;5.90;99.90;;;;;;5024223;28;20043;-71
2023/01/31 08:43:01;;;;;;;25.40;3.15;;;5.90;99.90;;;;;;5055076;28;20037;-72
2023/01/31 08:45:29;;;;;;;25.33;3.58;;;5.90;99.90;;;;;;5051893;28;20054;-71
2023/01/31 08:47:57;;;;;;;19.42;3.20;;;5.90;99.90;;;;;;5016926;28;20044;-72
2023/01/31 08:50:25;;;;;;;18.83;3.65;;;6.10;99.90;;;;;;5039487;28;20401;-72
2023/01/31 08:52:56;;;;;;;25.35;4.22;;;6.00;99.90;;;;;;5035399;28;20072;-72
2023/01/31 08:55:23;;;;;;;23.38;4.10;;;6.00;99.90;;;;;;5035573;28;20049;-72
2023/01/31 08:57:50;;;;;;;22.10;3.33;;;6.00;99.90;;;;;;5034407;28;20088;-72
2023/01/31 09:00:17;;;;;;;26.67;3.70;;;6.00;99.90;;;;;;5038827;28;20052;-72
2023/01/31 09:02:45;;;;;;;21.42;3.40;;;6.00;99.90;;;;;;5051243;28;20052;-71
2023/01/31 09:05:11;;;;;;;21.25;3.15;;;6.00;99.90;;;;;;5037491;28;20732;-72
2023/01/31 09:07:37;;;;;;;24.95;3.00;;;6.00;99.90;;;;;;5019413;28;20089;-71
2023/01/31 09:10:04;;;;;;;15.77;3.20;;;6.10;99.90;;;;;;5033402;28;20063;-71
2023/01/31 09:12:32;;;;;;;30.67;4.13;;;6.10;99.90;;;;;;5037955;28;20057;-71
2023/01/31 09:14:58;;;;;;;19.80;3.38;;;6.70;99.90;;;;;;5049514;28;20139;-71
2023/01/31 09:17:23;;;;;;;23.52;3.08;;;6.20;99.90;;;;;;5019701;28;20148;-72
2023/01/31 09:19:49;;;;;;;20.27;3.17;;;6.20;99.90;;;;;;5030579;28;20346;-71
2023/01/31 09:22:15;;;;;;;23.60;3.55;;;6.20;99.90;;;;;;5035375;28;20044;-72
2023/01/31 09:24:41;;;;;;;16.83;3.13;;;6.20;99.90;;;;;;5037479;28;20044;-72
2023/01/31 09:27:06;;;;;;;26.05;2.83;;;6.30;99.90;;;;;;5018449;28;20041;-72
2023/01/31 09:29:32;;;;;;;25.33;3.35;;;6.20;99.90;;;;;;5034050;28;20036;-72
2023/01/31 09:31:58;;;;;;;17.73;2.75;;;6.30;99.90;;;;;;5053106;28;20048;-72
2023/01/31 09:34:24;;;;;;;25.23;3.78;;;6.30;99.90;;;;;;5034479;28;20049;-71
2023/01/31 09:36:49;;;;;;;21.05;3.22;;;6.30;99.90;;;;;;5026436;28;20133;-71
2023/01/31 09:39:15;;;;;;;22.42;3.33;;;6.30;99.90;;;;;;5037648;28;20054;-72
2023/01/31 09:41:46;;;;;;;21.80;3.35;;;6.30;99.90;;;;;;5039507;28;20547;-72
2023/01/31 09:44:27;;;;;;;25.27;3.38;;;6.30;99.90;;;;;;5023080;28;20494;-72
2023/01/31 09:47:15;;;;;;;22.17;3.17;;;6.30;99.90;;;;;;5040250;28;20048;-71
2023/01/31 09:49:52;;;;;;;24.23;3.17;;;6.30;99.90;;;;;;5062843;28;20822;-72
2023/01/31 09:52:19;;;;;;;30.42;3.75;;;6.30;99.90;;;;;;5031815;28;20048;-72
2023/01/31 09:54:45;;;;;;;27.90;3.67;;;6.40;99.90;;;;;;5040724;28;20576;-72
2023/01/31 09:57:10;;;;;;;23.13;3.70;;;6.40;99.90;;;;;;5014968;28;20076;-72
2023/01/31 10:00:16;;;;;;;27.63;4.10;;;6.40;99.90;;;;;;5049840;28;20144;-72
2023/01/31 10:03:30;;;;;;;30.20;3.83;;;6.40;99.90;;;;;;5039856;28;20084;-71
2023/01/31 10:06:21;;;;;;;27.30;4.18;;;6.40;99.90;;;;;;5036645;28;20118;-72
2023/01/31 10:09:10;;;;;;;31.90;3.88;;;6.40;99.90;;;;;;5020811;28;20156;-72
2023/01/31 10:12:14;;;;;;;24.80;3.53;;;6.40;99.90;;;;;;5014444;28;20056;-71
2023/01/31 10:15:01;;;;;;;27.05;4.18;;;6.40;99.90;;;;;;4995554;28;20189;-70
2023/01/31 10:17:38;;;;;;;23.08;3.40;;;6.40;99.90;;;;;;5025843;28;20055;-71
2023/01/31 10:20:17;;;;;;;24.83;4.53;;;6.40;99.90;;;;;;5057832;28;20036;-71
2023/01/31 10:22:50;;;;;;;20.73;3.15;;;6.40;99.90;;;;;;5039532;28;20040;-72
2023/01/31 10:25:29;;;;;;;25.35;4.20;;;6.40;99.90;;;;;;5049922;28;21089;-71
2023/01/31 10:28:00;;;;;;;27.13;4.07;;;6.40;99.90;;;;;;5029075;28;20388;-71
2023/01/31 10:30:39;;;;;;;23.65;3.67;;;6.40;99.90;;;;;;5048717;28;20053;-71
2023/01/31 10:33:28;;;;;;;21.30;3.97;;;6.40;99.90;;;;;;5050700;28;20079;-71
2023/01/31 10:35:56;;;;;;;24.25;3.97;;;6.40;99.90;;;;;;5021330;28;20396;-71
2023/01/31 10:38:27;;;;;;;25.00;3.92;;;6.50;99.90;;;;;;5031119;28;20826;-71
2023/01/31 10:41:00;;;;;;;32.22;3.85;;;6.50;99.90;;;;;;5051321;28;20511;-71
2023/01/31 10:43:42;;;;;;;30.40;4.43;;;6.50;99.90;;;;;;5034269;28;20099;-71
2023/01/31 10:46:10;;;;;;;22.83;3.55;;;6.50;99.90;;;;;;5025348;28;20587;-71
2023/01/31 10:48:36;;;;;;;27.73;3.50;;;6.50;99.90;;;;;;5030114;28;20033;-71
2023/01/31 10:51:17;;;;;;;22.08;3.95;;;6.60;99.90;;;;;;5031842;28;20053;-71
2023/01/31 10:54:11;;;;;;;23.10;4.00;;;6.50;99.90;;;;;;5033198;28;20037;-71
2023/01/31 10:56:41;;;;;;;20.98;3.78;;;6.60;99.90;;;;;;5028659;28;20102;-72
2023/01/31 10:59:16;;;;;;;18.83;3.03;;;6.60;99.90;;;;;;5037664;28;20459;-70
2023/01/31 11:01:41;;;;;;;28.08;3.80;;;6.60;99.90;;;;;;5018384;28;20145;-71
2023/01/31 11:04:40;;;;;;;25.23;3.38;;;6.60;99.90;;;;;;5012064;28;20060;-71
2023/01/31 11:07:07;;;;;;;28.65;3.60;;;6.60;99.90;;;;;;5024256;28;20047;-70
2023/01/31 11:09:38;;;;;;;25.17;4.13;;;6.60;99.90;;;;;;5028489;28;20049;-71
2023/01/31 11:12:05;;;;;;;20.00;3.28;;;7.20;99.90;;;;;;5018179;28;20143;-71
2023/01/31 11:14:31;;;;;;;32.22;3.65;;;6.70;99.90;;;;;;5031447;28;20060;-71
2023/01/31 11:17:18;;;;;;;27.20;3.60;;;6.60;99.90;;;;;;5039437;28;20048;-71
2023/01/31 11:19:54;;;;;;;25.75;3.60;;;6.70;99.90;;;;;;5033742;28;20390;-70
2023/01/31 11:22:36;;;;;;;30.30;3.67;;;6.70;99.90;;;;;;5036319;28;20414;-71
2023/01/31 11:25:03;;;;;;;28.45;4.40;;;6.70;99.90;;;;;;5053028;28;20055;-71
2023/01/31 11:27:44;;;;;;;26.65;3.88;;;6.70;99.90;;;;;;5026594;28;20098;-71
2023/01/31 11:30:46;;;;;;;23.15;3.53;;;6.70;99.90;;;;;;5032322;28;20068;-71
2023/01/31 11:33:31;;;;;;;;;;;6.70;99.90;;;;;;4997164;28;20053;-71
2023/01/31 11:35:57;;;;;;;25.30;3.40;;;6.70;99.90;;;;;;5032761;28;19939;-71
2023/01/31 11:38:23;;;;;;;22.27;3.30;;;6.90;99.90;;;;;;5051686;28;20048;-71
2023/01/31 11:40:49;;;;;;;29.48;3.67;;;7.30;99.90;;;;;;5040858;28;20044;-71
2023/01/31 11:43:20;;;;;;;33.70;3.80;;;6.90;99.90;;;;;;5055993;28;20391;-72
2023/01/31 11:45:53;;;;;;;;;;;6.80;99.90;;;;;;5031451;28;20041;-71
2023/01/31 11:48:23;;;;;;;24.70;4.10;;;6.80;99.90;;;;;;5034574;28;19924;-71
2023/01/31 11:50:57;;;;;;;33.28;4.75;;;6.80;99.90;;;;;;5021664;28;20044;-71
2023/01/31 11:53:52;;;;;;;27.88;3.42;;;6.80;99.90;;;;;;5037714;28;20080;-71
2023/01/31 11:56:24;;;;;;;27.80;3.97;;;7.00;99.90;;;;;;5007690;28;20045;-71
2023/01/31 11:58:56;;;;;;;19.10;3.47;;;6.90;99.90;;;;;;5013144;28;20733;-71
2023/01/31 12:01:25;;;;;;;27.25;3.72;;;6.90;99.90;;;;;;5032233;28;20612;-71
2023/01/31 12:03:55;;;;;;;26.52;3.50;;;6.90;99.90;;;;;;5028619;28;20036;-71
2023/01/31 12:06:30;;;;;;;27.95;3.60;;;7.00;99.90;;;;;;5052722;28;20036;-71
2023/01/31 12:08:58;;;;;;;35.10;4.00;;;7.00;99.90;;;;;;5036893;28;20036;-71
2023/01/31 12:11:29;;;;;;;29.25;4.05;;;7.00;99.90;;;;;;5050903;28;20137;-71
2023/01/31 12:14:13;;;;;;;26.65;3.55;;;7.00;99.90;;;;;;5034537;28;20217;-71
2023/01/31 12:16:39;;;;;;;28.77;3.90;;;7.10;99.90;;;;;;5036847;28;20080;-70
2023/01/31 12:19:11;;;;;;;29.58;3.70;;;7.10;99.90;;;;;;5038225;28;20094;-71
2023/01/31 12:22:07;;;;;;;22.95;3.60;;;7.20;99.90;;;;;;5020480;28;20036;-71
2023/01/31 12:24:58;;;;;;;23.08;3.22;;;7.20;99.90;;;;;;5053965;28;20459;-72
2023/01/31 12:27:27;;;;;;;25.85;3.17;;;7.30;99.90;;;;;;5033720;28;20039;-71
2023/01/31 12:30:18;;;;;;;32.95;3.17;;;7.30;99.90;;;;;;5037199;28;20045;-71
2023/01/31 12:32:53;;;;;;;24.45;4.13;;;7.40;99.90;;;;;;5034415;28;20052;-71
2023/01/31 12:35:47;;;;;;;18.98;3.38;;;7.40;99.90;;;;;;5037094;28;20067;-72
2023/01/31 12:38:39;;;;;;;27.73;3.72;;;7.50;99.90;;;;;;5033341;28;20052;-72
2023/01/31 12:41:07;;;;;;;23.73;3.63;;;7.50;99.90;;;;;;5056629;28;20116;-71
2023/01/31 12:43:54;;;;;;;33.20;3.97;;;7.60;99.90;;;;;;5017745;28;20071;-71
2023/01/31 12:46:44;;;;;;;21.73;3.55;;;7.50;99.90;;;;;;5030778;28;20044;-69
2023/01/31 12:49:34;;;;;;;28.25;3.67;;;7.60;99.90;;;;;;5039460;28;20488;-70
2023/01/31 12:52:19;;;;;;;25.25;3.35;;;7.60;99.90;;;;;;5055578;28;20040;-70
2023/01/31 12:54:54;;;;;;;17.23;3.28;;;7.60;99.90;;;;;;5034085;28;20051;-71
2023/01/31 12:57:52;;;;;;;20.30;3.33;;;7.60;99.90;;;;;;5060050;28;20049;-71
2023/01/31 13:00:24;;;;;;;16.95;3.47;;;7.70;99.90;;;;;;5020766;28;20052;-70
2023/01/31 13:02:55;;;;;;;27.42;3.30;;;7.70;99.90;;;;;;5050394;28;20128;-71
2023/01/31 13:05:33;;;;;;;18.10;2.95;;;7.70;99.90;;;;;;5057719;28;20136;-70
2023/01/31 13:08:16;;;;;;;23.98;3.28;;;7.70;99.90;;;;;;5052590;28;20044;-71
2023/01/31 13:10:50;;;;;;;24.33;3.60;;;7.80;99.90;;;;;;5039434;28;20059;-71
2023/01/31 13:13:24;;;;;;;21.25;2.88;;;7.80;99.90;;;;;;5050906;28;20608;-70